Schooleys Mountain, New Jersey
Current Conditions -  °F | °C
As of 12:53 AM on Tuesday 21 Oct 2014 (Local Time) from KSMQ Reporting Station
Clear Clear  
Wind Chill: 46°   Ceiling: Unl
Heat Index: 46°   Visibility: 10mi
Dew Point: 41°   Wind: 3mph
Humidity: 83%   Direction: 320°NW
Pressure: 29.94"   Gusts: NA
Location:  40.8°N, 74.81°W
Report Text: KSMQ 210453Z AUTO 32003KT 10SM CLR 08/05 A2994 RMK AO2 SLP137 T00780050 401671011
Loading
Personal Weather Stations






























Interactive Weather Map
Tropical Storm Tracking
New forecast layout! Learn more

10-Day Weather Forecast

Advertisements
Track Severe Weather on mobile